createdAt,value
2023-11-12T00:01:35.805Z,21.00
2023-11-12T00:04:02.846Z,20.90
2023-11-12T00:06:29.442Z,27.70
2023-11-12T00:08:56.013Z,25.70
2023-11-12T00:11:22.847Z,21.90
2023-11-12T00:13:49.428Z,25.40
2023-11-12T00:16:17.408Z,27.10
2023-11-12T00:18:43.990Z,27.50
2023-11-12T00:21:10.701Z,28.30
2023-11-12T00:23:37.910Z,28.70
2023-11-12T00:26:04.348Z,26.70
2023-11-12T00:28:30.923Z,24.70
2023-11-12T00:30:57.466Z,24.30
2023-11-12T00:33:24.514Z,25.50
2023-11-12T00:35:51.033Z,25.50
2023-11-12T00:38:17.838Z,25.00
2023-11-12T00:40:45.811Z,25.50
2023-11-12T00:43:12.959Z,23.20
2023-11-12T00:45:39.777Z,25.40
2023-11-12T00:48:06.327Z,27.10
2023-11-12T00:50:33.003Z,24.20
2023-11-12T00:52:59.446Z,26.10
2023-11-12T00:55:26.036Z,21.60
2023-11-12T00:57:52.527Z,24.00
2023-11-12T01:00:19.158Z,20.70
2023-11-12T01:02:46.189Z,22.10
2023-11-12T01:05:13.045Z,15.00
2023-11-12T01:07:39.680Z,18.60
2023-11-12T01:10:06.924Z,16.00
2023-11-12T01:12:33.535Z,14.10
2023-11-12T01:14:59.950Z,17.00
2023-11-12T01:17:28.195Z,14.10
2023-11-12T01:19:55.893Z,13.80
2023-11-12T01:22:22.531Z,13.70
2023-11-12T01:24:48.951Z,10.80
2023-11-12T01:27:15.360Z,11.60
2023-11-12T01:29:41.889Z,10.50
2023-11-12T01:32:09.586Z,13.40
2023-11-12T01:34:36.071Z,11.30
2023-11-12T01:37:02.567Z,8.90
2023-11-12T01:39:29.167Z,11.30
2023-11-12T01:41:55.595Z,9.70
2023-11-12T01:44:22.160Z,9.10
2023-11-12T01:46:51.918Z,11.40
2023-11-12T01:49:19.104Z,8.40
2023-11-12T01:51:45.655Z,9.50
2023-11-12T01:54:12.336Z,10.00
2023-11-12T01:56:39.525Z,7.00
2023-11-12T01:59:06.089Z,10.70
2023-11-12T02:01:32.718Z,8.70
2023-11-12T02:03:59.333Z,9.80
2023-11-12T02:06:25.899Z,10.40
2023-11-12T02:08:52.615Z,9.30
2023-11-12T02:11:20.379Z,8.40
2023-11-12T02:13:46.920Z,8.00
2023-11-12T02:16:14.741Z,6.20
2023-11-12T02:18:47.038Z,5.60
2023-11-12T02:21:13.678Z,3.90
2023-11-12T02:23:40.570Z,4.20
2023-11-12T02:26:07.038Z,3.30
2023-11-12T02:28:33.446Z,5.70
2023-11-12T02:30:59.990Z,3.00
2023-11-12T02:33:27.855Z,3.20
2023-11-12T02:35:56.004Z,3.60
2023-11-12T02:38:23.724Z,5.00
2023-11-12T02:40:50.880Z,2.30
2023-11-12T02:43:18.397Z,4.70
2023-11-12T02:45:45.326Z,2.80
2023-11-12T02:48:12.411Z,2.80
2023-11-12T02:50:38.963Z,3.20
2023-11-12T02:53:07.665Z,3.00
2023-11-12T02:55:34.325Z,3.00
2023-11-12T02:58:00.858Z,3.20
2023-11-12T03:00:27.987Z,4.60
2023-11-12T03:02:58.503Z,3.80
2023-11-12T03:05:25.555Z,2.50
2023-11-12T03:07:52.111Z,3.20
2023-11-12T03:10:19.070Z,2.00
2023-11-12T03:12:45.598Z,2.10
2023-11-12T03:15:12.681Z,1.80
2023-11-12T03:17:39.674Z,7.50
2023-11-12T03:20:09.899Z,2.70
2023-11-12T03:22:36.859Z,2.40
2023-11-12T03:25:05.421Z,1.60
2023-11-12T03:27:32.958Z,1.40
2023-11-12T03:29:59.751Z,1.40
2023-11-12T03:32:26.182Z,1.30
2023-11-12T03:34:53.828Z,1.20
2023-11-12T03:37:20.840Z,1.60
2023-11-12T03:39:48.400Z,6.00
2023-11-12T03:42:18.481Z,1.20
2023-11-12T03:44:46.238Z,4.60
2023-11-12T03:47:12.926Z,0.80
2023-11-12T03:49:42.603Z,0.80
2023-11-12T03:52:09.471Z,1.40
2023-11-12T03:54:37.056Z,1.50
2023-11-12T03:57:04.233Z,0.80
2023-11-12T03:59:30.798Z,1.60
2023-11-12T04:01:57.404Z,1.50
2023-11-12T04:04:24.018Z,0.70
2023-11-12T04:06:50.620Z,1.80
2023-11-12T04:09:17.138Z,1.20
2023-11-12T04:11:43.638Z,0.90
2023-11-12T04:14:10.225Z,0.70
2023-11-12T04:16:37.610Z,0.70
2023-11-12T04:19:04.288Z,1.00
2023-11-12T04:21:31.079Z,1.40
2023-11-12T04:23:57.515Z,2.50
2023-11-12T04:26:25.109Z,0.80
2023-11-12T04:28:51.673Z,0.80
2023-11-12T04:31:18.350Z,1.10
2023-11-12T04:33:46.381Z,1.30
2023-11-12T04:36:13.349Z,1.20
2023-11-12T04:38:40.160Z,2.20
2023-11-12T04:41:08.704Z,1.90
2023-11-12T04:43:35.184Z,1.00
2023-11-12T04:46:01.794Z,2.60
2023-11-12T04:48:28.619Z,1.40
2023-11-12T04:50:55.271Z,0.90
2023-11-12T04:53:21.830Z,0.80
2023-11-12T04:55:48.295Z,1.80
2023-11-12T04:58:16.032Z,1.10
2023-11-12T05:00:42.603Z,1.40
2023-11-12T05:03:09.210Z,0.90
2023-11-12T05:05:36.725Z,3.60
2023-11-12T05:08:03.869Z,1.70
2023-11-12T05:10:44.452Z,0.70
2023-11-12T05:15:40.321Z,0.90
2023-11-12T05:18:07.556Z,1.50
2023-11-12T05:20:34.762Z,1.20
2023-11-12T05:23:01.847Z,2.00
2023-11-12T05:25:28.857Z,1.80
2023-11-12T05:27:55.496Z,1.30
2023-11-12T05:30:23.691Z,2.00
2023-11-12T05:32:53.048Z,1.10
2023-11-12T05:35:19.981Z,0.90
2023-11-12T05:37:48.027Z,1.20
2023-11-12T05:40:14.782Z,1.00
2023-11-12T05:42:42.263Z,1.10
2023-11-12T05:45:09.577Z,1.20
2023-11-12T05:47:36.355Z,1.40
2023-11-12T05:50:03.192Z,0.90
2023-11-12T05:52:29.841Z,1.00
2023-11-12T05:54:56.447Z,1.30
2023-11-12T05:57:23.379Z,2.00
2023-11-12T05:59:50.259Z,6.40
2023-11-12T06:02:16.978Z,1.40
2023-11-12T06:04:43.600Z,2.10
2023-11-12T06:07:10.399Z,6.20
2023-11-12T06:09:37.337Z,1.50
2023-11-12T06:12:05.547Z,1.20
2023-11-12T06:14:33.491Z,1.40
2023-11-12T06:17:01.143Z,1.20
2023-11-12T06:19:28.454Z,1.20
2023-11-12T06:21:56.782Z,3.80
2023-11-12T06:24:23.637Z,4.70
2023-11-12T06:26:50.234Z,1.80
2023-11-12T06:29:17.435Z,1.50
2023-11-12T06:31:44.228Z,1.20
2023-11-12T06:34:11.067Z,1.60
2023-11-12T06:36:37.982Z,2.50
2023-11-12T06:39:05.986Z,1.40
2023-11-12T06:41:33.589Z,1.20
2023-11-12T06:44:00.237Z,1.20
2023-11-12T06:46:26.867Z,4.00
2023-11-12T06:48:53.563Z,1.80
2023-11-12T06:51:22.217Z,2.00
2023-11-12T06:53:48.979Z,1.30
2023-11-12T06:56:15.739Z,1.00
2023-11-12T06:58:42.571Z,1.90
2023-11-12T07:01:09.342Z,1.80
2023-11-12T07:03:38.967Z,3.70
2023-11-12T07:06:06.971Z,2.50
2023-11-12T07:08:33.541Z,1.70
2023-11-12T07:11:00.672Z,2.60
2023-11-12T07:13:27.363Z,1.80
2023-11-12T07:15:55.855Z,1.10
2023-11-12T07:18:24.077Z,1.60
2023-11-12T07:20:50.674Z,2.20
2023-11-12T07:23:17.384Z,1.80
2023-11-12T07:25:44.211Z,1.30
2023-11-12T07:28:10.680Z,2.10
2023-11-12T07:30:38.557Z,2.80
2023-11-12T07:33:06.458Z,2.60
2023-11-12T07:35:33.251Z,1.60
2023-11-12T07:38:01.243Z,1.50
2023-11-12T07:40:27.793Z,1.10
2023-11-12T07:42:55.825Z,1.40
2023-11-12T07:45:25.736Z,1.20
2023-11-12T07:47:58.197Z,2.70
2023-11-12T07:50:24.873Z,1.60
2023-11-12T07:52:51.450Z,2.10
2023-11-12T07:55:18.479Z,1.50
2023-11-12T07:57:45.070Z,1.40
2023-11-12T08:00:13.720Z,1.40
2023-11-12T08:02:40.580Z,3.40
2023-11-12T08:05:08.916Z,1.20
2023-11-12T08:07:35.952Z,1.20
2023-11-12T08:10:05.314Z,1.50
2023-11-12T08:12:32.498Z,1.70
2023-11-12T08:14:59.198Z,2.00
2023-11-12T08:17:26.725Z,3.20
2023-11-12T08:19:53.440Z,1.20
2023-11-12T08:22:20.145Z,1.30
2023-11-12T08:24:47.601Z,3.40
2023-11-12T08:27:14.308Z,1.50
2023-11-12T08:29:40.885Z,3.30
2023-11-12T08:32:07.588Z,1.10
2023-11-12T08:34:34.240Z,1.00
2023-11-12T08:37:01.068Z,2.00
2023-11-12T08:39:28.465Z,2.20
2023-11-12T08:41:55.067Z,2.50
2023-11-12T08:44:21.607Z,1.80
2023-11-12T08:46:51.360Z,3.10
2023-11-12T08:49:19.529Z,2.50
2023-11-12T08:51:46.383Z,1.30
2023-11-12T08:54:13.615Z,2.10
2023-11-12T08:56:40.153Z,1.80
2023-11-12T08:59:08.012Z,1.30
2023-11-12T09:01:38.496Z,1.80
2023-11-12T09:04:05.278Z,3.30
2023-11-12T09:06:31.945Z,2.10
2023-11-12T09:08:58.748Z,1.90
2023-11-12T09:11:25.238Z,1.60
2023-11-12T09:13:52.107Z,1.50
2023-11-12T09:16:19.164Z,1.70
2023-11-12T09:18:45.970Z,2.20
2023-11-12T09:21:12.450Z,1.50
2023-11-12T09:23:39.843Z,3.50
2023-11-12T09:26:06.527Z,4.70
2023-11-12T09:28:32.968Z,1.80
2023-11-12T09:31:00.681Z,1.60
2023-11-12T09:33:29.078Z,7.70
2023-11-12T09:35:55.623Z,2.20
2023-11-12T09:38:22.173Z,2.00
2023-11-12T09:40:48.768Z,4.60
2023-11-12T09:43:15.339Z,2.10
2023-11-12T09:45:45.546Z,2.30
2023-11-12T09:48:41.516Z,2.40
2023-11-12T09:51:10.295Z,2.20
2023-11-12T09:53:37.258Z,2.60
2023-11-12T09:56:09.117Z,2.80
2023-11-12T09:58:51.083Z,2.60
2023-11-12T10:01:18.220Z,2.10
2023-11-12T10:03:48.780Z,1.90
2023-11-12T10:06:17.263Z,2.30
2023-11-12T10:08:43.860Z,2.00
2023-11-12T10:11:21.133Z,1.80
2023-11-12T10:13:48.251Z,2.80
2023-11-12T10:16:24.994Z,5.10
2023-11-12T10:18:52.543Z,1.60
2023-11-12T10:21:19.999Z,6.40
2023-11-12T10:23:46.779Z,2.40
2023-11-12T10:26:14.091Z,2.10
2023-11-12T10:28:41.142Z,4.60
2023-11-12T10:31:14.367Z,2.10
2023-11-12T10:33:42.310Z,2.20
2023-11-12T10:36:10.273Z,3.50
2023-11-12T10:38:49.079Z,3.20
2023-11-12T10:41:16.360Z,2.30
2023-11-12T10:43:56.635Z,2.40
2023-11-12T10:46:24.653Z,7.50
2023-11-12T10:48:51.976Z,3.80
2023-11-12T10:51:18.519Z,3.10
2023-11-12T10:53:45.071Z,2.90
2023-11-12T10:56:11.753Z,3.00
2023-11-12T10:58:38.562Z,2.90
2023-11-12T11:01:07.520Z,3.50
2023-11-12T11:03:34.660Z,2.80
2023-11-12T11:06:05.809Z,2.30
2023-11-12T11:08:34.642Z,2.90
2023-11-12T11:11:03.339Z,2.30
2023-11-12T11:13:30.531Z,2.10
2023-11-12T11:15:59.186Z,2.50
2023-11-12T11:18:35.116Z,2.30
2023-11-12T11:21:15.499Z,2.50
2023-11-12T11:23:42.872Z,2.20
2023-11-12T11:26:29.627Z,2.80
2023-11-12T11:29:05.688Z,2.20
2023-11-12T11:31:33.350Z,2.10
2023-11-12T11:34:01.032Z,2.90
2023-11-12T11:36:27.891Z,3.50
2023-11-12T11:39:07.031Z,2.40
2023-11-12T11:41:34.873Z,2.70
2023-11-12T11:44:39.520Z,3.40
2023-11-12T11:47:24.221Z,2.40
2023-11-12T11:50:09.167Z,1.80
2023-11-12T11:52:36.573Z,5.10
2023-11-12T11:55:19.016Z,1.80
2023-11-12T11:57:46.850Z,5.30
2023-11-12T12:00:15.979Z,2.20
2023-11-12T12:02:44.821Z,2.60
2023-11-12T12:05:14.359Z,2.80
2023-11-12T12:07:45.471Z,3.60
2023-11-12T12:10:26.140Z,2.40
2023-11-12T12:12:54.532Z,2.30
2023-11-12T12:15:21.918Z,2.30
2023-11-12T12:17:48.809Z,3.60
2023-11-12T12:20:15.574Z,1.80
2023-11-12T12:22:42.179Z,1.70
2023-11-12T12:25:09.669Z,3.30
2023-11-12T12:27:36.261Z,2.10
2023-11-12T12:30:03.282Z,2.10
2023-11-12T12:32:30.294Z,1.90
2023-11-12T12:34:56.994Z,1.60
2023-11-12T12:37:26.099Z,1.80
2023-11-12T12:40:03.422Z,4.20
2023-11-12T12:42:30.683Z,2.80
2023-11-12T12:45:00.403Z,5.90
2023-11-12T12:47:42.218Z,2.60
2023-11-12T12:52:46.388Z,3.80
2023-11-12T12:55:17.074Z,3.80
2023-11-12T12:57:48.432Z,4.40
2023-11-12T13:00:15.380Z,3.80
2023-11-12T13:02:42.206Z,3.70
2023-11-12T13:05:19.507Z,3.20
2023-11-12T13:07:50.994Z,3.20
2023-11-12T13:10:27.525Z,6.70
2023-11-12T13:12:56.190Z,2.00
2023-11-12T13:15:25.628Z,2.20
2023-11-12T13:17:52.887Z,1.60
2023-11-12T13:20:24.958Z,1.40
2023-11-12T13:22:52.334Z,2.70
2023-11-12T13:25:18.967Z,1.70
2023-11-12T13:27:45.890Z,1.90
2023-11-12T13:30:12.975Z,1.30
2023-11-12T13:32:40.560Z,1.90
2023-11-12T13:35:09.052Z,1.50
2023-11-12T13:37:35.957Z,2.10
2023-11-12T13:40:05.643Z,2.60
2023-11-12T13:42:36.230Z,1.60
2023-11-12T13:45:05.900Z,1.30
2023-11-12T13:47:34.329Z,1.60
2023-11-12T13:50:00.987Z,1.50
2023-11-12T13:52:27.788Z,1.80
2023-11-12T13:54:55.292Z,1.90
2023-11-12T13:57:22.498Z,1.80
2023-11-12T13:59:50.154Z,2.10
2023-11-12T14:02:17.279Z,2.60
2023-11-12T14:04:44.718Z,4.00
2023-11-12T14:07:11.222Z,2.90
2023-11-12T14:09:38.953Z,1.80
2023-11-12T14:12:07.341Z,1.60
2023-11-12T14:14:34.764Z,2.80
2023-11-12T14:17:08.411Z,4.20
2023-11-12T14:19:36.846Z,1.80
2023-11-12T14:22:04.643Z,2.60
2023-11-12T14:24:31.511Z,4.10
2023-11-12T14:26:58.292Z,1.50
2023-11-12T14:29:26.143Z,2.00
2023-11-12T14:31:52.802Z,1.90
2023-11-12T14:34:19.603Z,1.80
2023-11-12T14:36:46.373Z,1.80
2023-11-12T14:39:18.581Z,1.80
2023-11-12T14:41:45.771Z,2.60
2023-11-12T14:44:12.764Z,1.70
2023-11-12T14:46:39.830Z,1.60
2023-11-12T14:49:06.913Z,2.20
2023-11-12T14:51:33.978Z,5.00
2023-11-12T14:54:05.862Z,2.80
2023-11-12T14:56:33.105Z,1.80
2023-11-12T14:58:59.974Z,2.00
2023-11-12T15:01:29.191Z,5.90
2023-11-12T15:03:55.884Z,2.10
2023-11-12T15:06:23.641Z,2.20
2023-11-12T15:08:50.599Z,2.80
2023-11-12T15:11:17.603Z,1.70
2023-11-12T15:13:45.005Z,3.10
2023-11-12T15:16:20.077Z,3.20
2023-11-12T15:18:47.111Z,4.90
2023-11-12T15:21:14.897Z,4.90
2023-11-12T15:23:42.247Z,2.40
2023-11-12T15:26:16.430Z,2.60
2023-11-12T15:28:43.226Z,2.90
2023-11-12T15:31:13.321Z,3.70
2023-11-12T15:33:40.630Z,2.70
2023-11-12T15:36:10.850Z,3.70
2023-11-12T15:38:37.675Z,2.70
2023-11-12T15:41:07.795Z,3.20
2023-11-12T15:43:34.476Z,2.90
2023-11-12T15:46:03.500Z,2.90
2023-11-12T15:48:31.362Z,2.40
2023-11-12T15:50:58.081Z,3.20
2023-11-12T15:53:28.923Z,3.20
2023-11-12T15:55:59.131Z,4.50
2023-11-12T15:58:25.933Z,2.90
2023-11-12T16:00:52.827Z,3.70
2023-11-12T16:03:19.957Z,2.50
2023-11-12T16:05:46.872Z,5.50
2023-11-12T16:08:13.528Z,4.30
2023-11-12T16:10:41.027Z,4.20
2023-11-12T16:13:08.627Z,6.50
2023-11-12T16:15:36.528Z,3.80
2023-11-12T16:18:03.524Z,4.10
2023-11-12T16:20:32.235Z,4.30
2023-11-12T16:22:59.438Z,3.30
2023-11-12T16:25:27.219Z,5.60
2023-11-12T16:27:54.571Z,5.40
2023-11-12T16:30:24.401Z,4.80
2023-11-12T16:45:24.110Z,7.50
2023-11-12T16:47:51.622Z,7.30
2023-11-12T16:50:19.347Z,9.40
2023-11-12T16:52:47.014Z,7.40
2023-11-12T16:55:14.563Z,9.30
2023-11-12T16:57:44.105Z,6.90
2023-11-12T17:00:12.276Z,10.90
2023-11-12T17:02:39.847Z,10.80
2023-11-12T17:05:07.768Z,10.50
2023-11-12T17:07:35.288Z,10.90
2023-11-12T17:10:04.919Z,12.80
2023-11-12T17:12:33.953Z,13.60
2023-11-12T17:15:03.107Z,13.50
2023-11-12T17:17:31.190Z,16.10
2023-11-12T17:20:00.537Z,16.70
2023-11-12T17:22:29.175Z,14.20
2023-11-12T17:24:57.699Z,13.80
2023-11-12T17:27:26.228Z,12.70
2023-11-12T17:29:53.818Z,12.30
2023-11-12T17:32:21.687Z,12.40
2023-11-12T17:34:49.393Z,14.80
2023-11-12T17:37:17.216Z,13.80
2023-11-12T17:39:44.874Z,15.00
2023-11-12T17:42:12.640Z,15.30
2023-11-12T17:44:40.484Z,13.60
2023-11-12T17:47:08.016Z,17.00
2023-11-12T17:49:35.654Z,16.70
2023-11-12T17:52:03.385Z,14.30
2023-11-12T17:54:31.530Z,15.60
2023-11-12T17:56:59.336Z,16.20
2023-11-12T17:59:26.992Z,17.90
2023-11-12T18:01:54.693Z,15.40
2023-11-12T18:04:22.641Z,15.50
2023-11-12T18:06:50.145Z,18.90
2023-11-12T18:09:19.112Z,17.30
2023-11-12T18:11:46.834Z,21.50
2023-11-12T18:14:16.194Z,16.70
2023-11-12T18:16:48.240Z,19.40
2023-11-12T18:19:16.224Z,14.50
2023-11-12T18:21:43.927Z,15.20
2023-11-12T18:24:12.638Z,18.90
2023-11-12T18:26:40.221Z,19.30
2023-11-12T18:29:07.731Z,14.90
2023-11-12T18:31:38.557Z,17.80
2023-11-12T18:34:06.954Z,15.40
2023-11-12T18:36:34.731Z,15.80
2023-11-12T18:39:02.317Z,13.90
2023-11-12T18:41:30.429Z,16.00
2023-11-12T18:43:57.900Z,14.90
2023-11-12T18:46:25.491Z,14.40
2023-11-12T18:48:55.622Z,14.50
2023-11-12T18:51:23.082Z,14.60
2023-11-12T18:53:51.607Z,15.70
2023-11-12T18:56:20.943Z,15.50
2023-11-12T18:58:51.928Z,14.20
2023-11-12T19:01:19.447Z,13.60
2023-11-12T19:03:47.280Z,13.90
2023-11-12T19:06:14.705Z,14.50
2023-11-12T19:08:42.273Z,16.70
2023-11-12T19:11:11.274Z,17.00
2023-11-12T19:13:40.490Z,17.50
2023-11-12T19:16:08.135Z,15.90
2023-11-12T19:18:36.306Z,15.40
2023-11-12T19:21:04.468Z,14.20
2023-11-12T19:23:32.079Z,14.40
2023-11-12T19:25:59.562Z,12.60
2023-11-12T19:28:27.076Z,12.40
2023-11-12T19:30:54.663Z,21.10
2023-11-12T19:33:22.517Z,13.20
2023-11-12T19:35:50.067Z,11.10
2023-11-12T19:38:17.540Z,9.20
2023-11-12T19:40:45.444Z,10.30
2023-11-12T19:43:14.035Z,11.20
2023-11-12T19:45:41.654Z,12.10
2023-11-12T19:48:10.641Z,14.40
2023-11-12T19:50:38.134Z,10.10
2023-11-12T19:53:05.615Z,11.80
2023-11-12T19:55:34.676Z,11.90
2023-11-12T19:58:03.272Z,18.00
2023-11-12T20:00:32.164Z,12.00
2023-11-12T20:03:00.424Z,13.30
2023-11-12T20:05:28.033Z,13.60
2023-11-12T20:07:55.797Z,13.90
2023-11-12T20:10:24.932Z,12.90
2023-11-12T20:12:52.824Z,15.70
2023-11-12T20:15:21.723Z,15.40
2023-11-12T20:17:49.624Z,11.20
2023-11-12T20:20:18.316Z,11.30
2023-11-12T20:22:46.756Z,10.10
2023-11-12T20:25:14.212Z,8.50
2023-11-12T20:27:41.962Z,10.70
2023-11-12T20:30:12.836Z,11.00
2023-11-12T20:32:43.101Z,9.40
2023-11-12T20:35:10.723Z,11.00
2023-11-12T20:37:38.904Z,8.20
2023-11-12T20:40:10.785Z,10.60
2023-11-12T20:42:40.312Z,9.30
2023-11-12T20:45:08.449Z,10.20
2023-11-12T20:47:36.170Z,10.40
2023-11-12T20:50:05.629Z,9.70
2023-11-12T20:52:35.041Z,9.80
2023-11-12T20:55:02.492Z,10.20
2023-11-12T20:57:30.126Z,9.20
2023-11-12T21:00:00.632Z,8.70
2023-11-12T21:02:28.291Z,9.00
2023-11-12T21:04:56.894Z,9.30
2023-11-12T21:07:24.694Z,8.90
2023-11-12T21:09:52.844Z,12.20
2023-11-12T21:12:22.385Z,8.10
2023-11-12T21:14:51.920Z,8.00
2023-11-12T21:17:20.030Z,8.50
2023-11-12T21:19:47.919Z,10.00
2023-11-12T21:22:15.364Z,10.20
2023-11-12T21:24:44.334Z,8.20
2023-11-12T21:27:13.694Z,5.50
2023-11-12T21:29:43.344Z,7.00
2023-11-12T21:32:11.409Z,7.60
2023-11-12T21:34:38.837Z,7.00
2023-11-12T21:37:09.168Z,9.40
2023-11-12T21:39:37.102Z,8.40
2023-11-12T21:42:06.480Z,8.50
2023-11-12T21:44:33.964Z,7.20
2023-11-12T21:47:03.292Z,7.10
2023-11-12T21:49:30.952Z,7.30
2023-11-12T21:51:58.856Z,7.40
2023-11-12T21:54:26.671Z,8.90
2023-11-12T21:56:54.581Z,8.70
2023-11-12T21:59:22.437Z,9.20
2023-11-12T22:01:50.397Z,5.00
2023-11-12T22:04:22.585Z,6.00
2023-11-12T22:06:50.073Z,8.50
2023-11-12T22:09:17.986Z,5.50
2023-11-12T22:11:46.141Z,6.80
2023-11-12T22:14:14.162Z,5.40
2023-11-12T22:16:46.031Z,4.50
2023-11-12T22:19:13.647Z,6.20
2023-11-12T22:21:41.343Z,7.60
2023-11-12T22:24:09.065Z,7.70
2023-11-12T22:26:40.409Z,11.40
2023-11-12T22:29:07.848Z,9.90
2023-11-12T22:31:35.456Z,13.60
2023-11-12T22:34:03.115Z,10.70
2023-11-12T22:36:30.992Z,15.70
2023-11-12T22:38:58.609Z,15.80
2023-11-12T22:41:25.917Z,15.80
2023-11-12T22:43:53.279Z,15.10
2023-11-12T22:46:20.687Z,19.40
2023-11-12T22:48:48.701Z,18.30
2023-11-12T22:51:16.220Z,17.60
2023-11-12T22:53:43.636Z,18.10
2023-11-12T22:56:11.053Z,17.00
2023-11-12T22:58:38.824Z,20.40
2023-11-12T23:01:07.541Z,19.90
2023-11-12T23:03:35.377Z,18.80
2023-11-12T23:06:03.768Z,16.80
2023-11-12T23:08:32.315Z,17.50
2023-11-12T23:10:59.834Z,17.90
2023-11-12T23:13:28.664Z,23.70
2023-11-12T23:15:58.166Z,17.60
2023-11-12T23:18:27.040Z,17.90
2023-11-12T23:20:59.515Z,16.50
2023-11-12T23:23:34.101Z,14.20
2023-11-12T23:26:02.831Z,13.30
2023-11-12T23:28:30.337Z,15.90
2023-11-12T23:30:59.929Z,14.70
2023-11-12T23:33:27.555Z,14.10
2023-11-12T23:35:55.222Z,14.90
2023-11-12T23:38:22.858Z,13.50
2023-11-12T23:40:50.318Z,17.60
2023-11-12T23:43:17.904Z,14.40
2023-11-12T23:45:45.418Z,16.40
2023-11-12T23:48:13.003Z,14.50
2023-11-12T23:50:40.459Z,13.90
2023-11-12T23:53:08.012Z,13.20
